Time;durP1;ratioP1;P1;durP2;ratioP2;P2;SDS_P1;SDS_P2;PMS_P1;PMS_P2;Temp;Humidity;BMP_temperature;BMP_pressure;BME280_temperature;BME280_humidity;BME280_pressure;Samples;Min_cycle;Max_cycle;Signal;HPM_P1;HPM_P2
2022/09/03 00:02:20;;;;;;;2.07;1.87;;;15.40;1.00;;;;;;5035095;28;20888;-72
2022/09/03 00:05:04;;;;;;;4.07;1.73;;;15.40;1.00;;;;;;5034973;28;20442;-72
2022/09/03 00:07:59;;;;;;;2.90;1.97;;;15.40;1.00;;;;;;5034365;28;20477;-72
2022/09/03 00:10:49;;;;;;;2.77;1.80;;;15.40;1.00;;;;;;5035302;28;20393;-72
2022/09/03 00:13:22;;;;;;;2.30;1.27;;;15.40;1.00;;;;;;5024936;28;20430;-72
2022/09/03 00:15:49;;;;;;;3.90;1.60;;;15.40;1.00;;;;;;5022822;28;20385;-72
2022/09/03 00:18:20;;;;;;;2.40;1.70;;;15.30;1.00;;;;;;5029526;28;20816;-72
2022/09/03 00:20:52;;;;;;;3.37;1.63;;;15.40;1.00;;;;;;5035101;28;20869;-72
2022/09/03 00:23:26;;;;;;;1.60;1.50;;;15.30;1.00;;;;;;5034206;28;20404;-72
2022/09/03 00:26:10;;;;;;;7.33;1.73;;;15.30;1.00;;;;;;5035513;28;20370;-77
2022/09/03 00:28:46;;;;;;;1.60;1.40;;;15.30;1.00;;;;;;5036080;28;20406;-77
2022/09/03 00:35:20;;;;;;;1.63;1.33;;;15.30;1.00;;;;;;5048462;28;20549;-78
2022/09/03 00:41:16;;;;;;;1.70;1.60;;;15.20;1.00;;;;;;5027754;28;20463;-78
2022/09/03 00:44:18;;;;;;;2.80;1.67;;;15.30;1.00;;;;;;5043070;28;20426;-78
2022/09/03 00:47:00;;;;;;;2.50;2.07;;;15.20;1.00;;;;;;5028071;28;20915;-78
2022/09/03 00:49:59;;;;;;;5.27;2.03;;;15.10;1.00;;;;;;5048151;28;20856;-78
2022/09/03 00:53:08;;;;;;;3.13;1.63;;;15.10;1.00;;;;;;5034181;28;20393;-78
2022/09/03 00:56:16;;;;;;;1.60;1.50;;;15.10;1.00;;;;;;5033392;28;20446;-72
2022/09/03 00:59:06;;;;;;;2.30;1.67;;;15.00;1.00;;;;;;5019700;28;20794;-72
2022/09/03 01:01:39;;;;;;;1.50;1.40;;;15.00;1.00;;;;;;5031279;28;20514;-72
2022/09/03 01:04:14;;;;;;;1.87;1.37;;;15.00;1.00;;;;;;5031913;28;20771;-72
2022/09/03 01:07:07;;;;;;;1.53;1.43;;;14.90;1.00;;;;;;5029704;28;20474;-72
2022/09/03 01:09:57;;;;;;;2.60;1.50;;;14.90;1.00;;;;;;5034440;28;20443;-72
2022/09/03 01:12:31;;;;;;;1.47;1.37;;;14.90;1.00;;;;;;5032248;28;20404;-72
2022/09/03 01:15:30;;;;;;;1.13;1.13;;;14.80;1.00;;;;;;5023762;28;20907;-72
2022/09/03 01:18:33;;;;;;;5.40;1.47;;;14.80;1.00;;;;;;5016304;28;20412;-72
2022/09/03 01:21:38;;;;;;;2.87;2.43;;;14.80;1.00;;;;;;5034474;28;20509;-72
2022/09/03 01:24:30;;;;;;;1.87;1.77;;;14.70;1.00;;;;;;5033290;28;20426;-72
2022/09/03 01:27:20;;;;;;;1.83;1.50;;;14.70;1.00;;;;;;5037885;28;20472;-72
2022/09/03 01:30:05;;;;;;;4.20;1.57;;;14.70;1.00;;;;;;5038312;28;20410;-72
2022/09/03 01:33:01;;;;;;;6.37;3.23;;;14.70;1.00;;;;;;5032069;28;20824;-72
2022/09/03 01:35:43;;;;;;;4.83;2.00;;;14.70;1.00;;;;;;4965191;28;20465;-72
2022/09/03 01:38:33;;;;;;;2.70;1.40;;;14.70;1.00;;;;;;4963319;28;20472;-72
2022/09/03 01:42:12;;;;;;;4.50;1.80;;;14.70;1.00;;;;;;4971817;28;20495;-72
2022/09/03 01:44:02;;;;;;;4.20;1.40;;;14.70;1.00;;;;;;4971622;28;20479;-72
2022/09/03 01:46:37;;;;;;;3.73;1.30;;;14.60;1.00;;;;;;4972273;28;20433;-72
2022/09/03 01:49:21;;;;;;;2.30;1.60;;;14.70;1.00;;;;;;4969258;28;20859;-72
2022/09/03 01:51:59;;;;;;;8.90;1.97;;;14.70;1.00;;;;;;4970958;28;20403;-72
2022/09/03 01:54:42;;;;;;;2.97;1.90;;;14.70;1.00;;;;;;4971650;28;20462;-72
2022/09/03 02:00:32;;;;;;;1.87;1.60;;;14.70;1.00;;;;;;4971095;28;20547;-78
2022/09/03 02:03:34;;;;;;;3.00;1.60;;;14.80;1.00;;;;;;4964388;28;20902;-77
2022/09/03 02:06:20;;;;;;;1.50;1.43;;;14.80;1.00;;;;;;4966004;28;20457;-78
2022/09/03 02:08:50;;;;;;;2.27;1.47;;;14.90;1.00;;;;;;4981358;28;20441;-78
2022/09/03 02:12:02;;;;;;;1.93;1.73;;;14.90;1.00;;;;;;4975295;28;20401;-78
2022/09/03 02:14:33;;;;;;;2.87;1.93;;;15.00;1.00;;;;;;5034414;28;20436;-78
2022/09/03 02:20:39;;;;;;;3.23;1.57;;;15.10;1.00;;;;;;5013739;28;20791;-78
2022/09/03 02:26:26;;;;;;;6.63;1.73;;;15.20;1.00;;;;;;5047344;28;20865;-78
2022/09/03 02:28:54;;;;;;;1.90;1.80;;;15.20;1.00;;;;;;5027679;28;20430;-78
2022/09/03 02:34:42;;;;;;;1.67;1.50;;;15.30;1.00;;;;;;5020364;28;20525;-78
2022/09/03 02:37:26;;;;;;;4.90;1.50;;;15.30;1.00;;;;;;5033503;28;20386;-78
2022/09/03 02:43:20;;;;;;;3.80;1.77;;;15.50;1.00;;;;;;5031763;28;20483;-78
2022/09/03 02:45:54;;;;;;;5.57;1.50;;;15.60;1.00;;;;;;5036514;28;20389;-78
2022/09/03 02:49:08;;;;;;;4.30;1.50;;;15.60;1.00;;;;;;5048661;28;20427;-78
2022/09/03 02:51:44;;;;;;;4.50;1.47;;;15.70;1.00;;;;;;5025192;28;20809;-78
2022/09/03 02:54:27;;;;;;;2.23;1.40;;;15.70;1.00;;;;;;5033127;28;20953;-78
2022/09/03 02:56:53;;;;;;;1.60;1.50;;;15.80;1.00;;;;;;5046464;28;20381;-72
2022/09/03 02:59:21;;;;;;;2.30;1.80;;;15.90;1.00;;;;;;5025481;28;20402;-73
2022/09/03 03:01:47;;;;;;;4.70;1.43;;;15.90;1.00;;;;;;5032555;28;20495;-72
2022/09/03 03:04:13;;;;;;;2.93;1.43;;;16.00;1.00;;;;;;5032934;28;20394;-72
2022/09/03 03:06:44;;;;;;;1.37;1.27;;;16.00;1.00;;;;;;5031696;28;20581;-72
2022/09/03 03:09:10;;;;;;;1.80;1.70;;;16.00;1.00;;;;;;5034862;28;20785;-72
2022/09/03 03:11:36;;;;;;;2.60;1.23;;;16.10;1.00;;;;;;5024988;28;20404;-78
2022/09/03 03:14:03;;;;;;;1.47;1.37;;;16.20;1.00;;;;;;5034614;28;20217;-78
2022/09/03 03:16:56;;;;;;;1.87;1.30;;;16.20;1.00;;;;;;5036471;28;20386;-78
2022/09/03 03:19:56;;;;;;;1.40;1.30;;;16.30;1.00;;;;;;5036386;28;20455;-78
2022/09/03 03:22:26;;;;;;;2.73;1.30;;;16.30;1.00;;;;;;5036100;28;20402;-78
2022/09/03 03:28:14;;;;;;;1.67;1.23;;;16.40;1.00;;;;;;5036691;28;20443;-78
2022/09/03 03:31:20;;;;;;;1.70;1.60;;;16.40;1.00;;;;;;5041069;28;20430;-79
2022/09/03 03:33:56;;;;;;;3.03;1.40;;;16.50;1.00;;;;;;5032943;28;20655;-78
2022/09/03 03:36:30;;;;;;;3.80;1.63;;;16.50;1.00;;;;;;5036064;28;20394;-78
2022/09/03 03:39:14;;;;;;;1.93;1.50;;;16.50;1.00;;;;;;5034827;28;20414;-78
2022/09/03 03:41:56;;;;;;;2.37;1.30;;;16.60;1.00;;;;;;5036044;28;20925;-75
2022/09/03 03:44:22;;;;;;;4.50;1.50;;;16.60;1.00;;;;;;5033908;28;20417;-72
2022/09/03 03:46:50;;;;;;;2.33;1.23;;;16.60;1.00;;;;;;5035827;28;20416;-72
2022/09/03 03:49:16;;;;;;;3.00;1.20;;;16.70;1.00;;;;;;5025549;28;20190;-72
2022/09/03 03:51:41;;;;;;;2.77;1.10;;;16.70;1.00;;;;;;5031299;28;20456;-72
2022/09/03 03:54:08;;;;;;;5.03;1.40;;;16.80;1.00;;;;;;5034038;28;20695;-72
2022/09/03 03:56:38;;;;;;;2.60;1.43;;;16.80;1.00;;;;;;5040148;28;20617;-73
2022/09/03 03:59:04;;;;;;;4.83;1.20;;;16.80;1.00;;;;;;5035749;28;20434;-72
2022/09/03 04:01:30;;;;;;;2.73;1.60;;;16.80;1.00;;;;;;5035015;28;20407;-72
2022/09/03 04:03:57;;;;;;;2.80;1.77;;;16.90;1.00;;;;;;5034697;28;20208;-73
2022/09/03 04:06:23;;;;;;;3.27;1.40;;;16.90;1.00;;;;;;5040715;28;20252;-73
2022/09/03 04:08:49;;;;;;;2.20;1.50;;;16.90;1.00;;;;;;5037650;28;20807;-72
2022/09/03 04:11:18;;;;;;;4.87;1.40;;;16.90;1.00;;;;;;5040236;28;20416;-72
2022/09/03 04:13:45;;;;;;;3.43;1.70;;;17.00;1.00;;;;;;5034095;28;20470;-72
2022/09/03 04:16:17;;;;;;;4.27;1.50;;;17.00;1.00;;;;;;5037291;28;20417;-72
2022/09/03 04:18:44;;;;;;;1.37;1.20;;;17.10;1.00;;;;;;5034218;28;20514;-72
2022/09/03 04:21:12;;;;;;;1.67;1.57;;;17.10;1.00;;;;;;5036560;28;20904;-73
2022/09/03 04:23:40;;;;;;;1.17;1.17;;;17.10;1.00;;;;;;5035711;28;20436;-72
2022/09/03 04:26:07;;;;;;;1.33;1.23;;;17.10;1.00;;;;;;5035613;28;20406;-72
2022/09/03 04:28:34;;;;;;;1.73;1.27;;;17.10;1.00;;;;;;5035861;28;20407;-78
2022/09/03 04:31:04;;;;;;;1.87;1.70;;;17.20;1.00;;;;;;5038985;28;20777;-77
2022/09/03 04:33:31;;;;;;;2.23;1.40;;;17.20;1.00;;;;;;5033583;28;20399;-78
2022/09/03 04:36:21;;;;;;;1.50;1.40;;;17.20;1.00;;;;;;5041966;28;20794;-78
2022/09/03 04:39:02;;;;;;;1.70;1.60;;;17.20;1.00;;;;;;5032638;28;20427;-78
2022/09/03 04:41:44;;;;;;;5.60;1.77;;;17.20;1.00;;;;;;5042397;28;20442;-78
2022/09/03 04:44:11;;;;;;;3.60;1.43;;;17.20;1.00;;;;;;5036385;28;20382;-72
2022/09/03 04:46:36;;;;;;;3.07;1.40;;;17.30;1.00;;;;;;5034300;28;20411;-73
2022/09/03 04:49:02;;;;;;;1.83;1.57;;;17.30;1.00;;;;;;5035150;28;20447;-72
2022/09/03 04:51:28;;;;;;;1.60;1.50;;;17.30;1.00;;;;;;5041562;28;20181;-72
2022/09/03 04:53:59;;;;;;;4.40;1.57;;;17.40;1.00;;;;;;5035956;28;20431;-72
2022/09/03 04:56:32;;;;;;;4.13;1.40;;;17.40;1.00;;;;;;5026025;28;20440;-72
2022/09/03 05:03:08;;;;;;;1.63;1.53;;;17.50;1.00;;;;;;5023025;28;20942;-78
2022/09/03 05:08:56;;;;;;;1.90;1.53;;;17.50;1.00;;;;;;5048467;28;20462;-78
2022/09/03 05:11:23;;;;;;;1.70;1.20;;;17.60;1.00;;;;;;5034188;28;20404;-78
2022/09/03 05:17:10;;;;;;;2.10;1.40;;;17.60;1.00;;;;;;5033933;28;20399;-78
2022/09/03 05:23:08;;;;;;;5.90;1.07;;;17.70;1.00;;;;;;5035108;28;20907;-79
2022/09/03 05:28:59;;;;;;;4.20;1.13;;;17.70;1.00;;;;;;5022636;28;20531;-82
2022/09/03 05:31:27;;;;;;;2.83;1.47;;;17.70;1.00;;;;;;5034412;28;20438;-82
2022/09/03 05:37:22;;;;;;;1.67;1.40;;;17.70;1.00;;;;;;5026109;28;20461;-82
2022/09/03 05:43:09;;;;;;;1.40;1.30;;;17.90;1.00;;;;;;5035560;28;20449;-81
2022/09/03 05:45:59;;;;;;;3.50;1.80;;;18.00;1.00;;;;;;5029135;28;20437;-83
2022/09/03 05:52:22;;;;;;;1.43;1.33;;;18.20;1.00;;;;;;5035656;28;20413;-83
2022/09/03 05:58:45;;;;;;;9.90;1.60;;;18.30;1.00;;;;;;5028601;28;20417;-79
2022/09/03 06:01:33;;;;;;;2.90;1.70;;;18.40;1.00;;;;;;5040904;28;20986;-79
2022/09/03 06:04:38;;;;;;;3.67;1.50;;;18.40;1.00;;;;;;5033456;28;20998;-79
2022/09/03 06:07:26;;;;;;;3.43;1.80;;;18.40;1.00;;;;;;5033609;28;20407;-79
2022/09/03 06:09:51;;;;;;;2.13;1.53;;;18.50;1.00;;;;;;5023617;28;20492;-80
2022/09/03 06:12:50;;;;;;;2.60;1.50;;;18.50;1.00;;;;;;5037960;28;20610;-80
2022/09/03 06:18:37;;;;;;;2.70;1.60;;;18.50;1.00;;;;;;5040781;28;20467;-79
2022/09/03 06:24:26;;;;;;;3.03;1.40;;;18.50;1.00;;;;;;5024761;28;20193;-79
2022/09/03 06:30:15;;;;;;;2.30;1.33;;;18.50;1.00;;;;;;5039977;28;20998;-79
2022/09/03 06:36:06;;;;;;;3.80;1.50;;;18.60;1.00;;;;;;5040078;28;20488;-79
2022/09/03 06:45:20;;;;;;;2.10;1.63;;;18.70;1.00;;;;;;5037265;28;20479;-80
2022/09/03 06:51:29;;;;;;;2.20;1.73;;;18.80;1.00;;;;;;5049282;28;20363;-79
2022/09/03 06:54:26;;;;;;;2.00;1.40;;;18.90;1.00;;;;;;5049974;28;20452;-79
2022/09/03 07:00:14;;;;;;;3.27;1.57;;;19.00;1.00;;;;;;5056773;28;20721;-73
2022/09/03 07:02:40;;;;;;;2.60;1.83;;;19.10;1.00;;;;;;5042648;28;20429;-73
2022/09/03 07:05:07;;;;;;;1.63;1.53;;;19.20;1.00;;;;;;5056528;28;20497;-73
2022/09/03 07:07:38;;;;;;;2.13;1.57;;;19.20;1.00;;;;;;5037941;28;20588;-73
2022/09/03 07:10:05;;;;;;;2.03;1.70;;;19.20;1.00;;;;;;5046539;28;20417;-73
2022/09/03 07:12:33;;;;;;;2.50;1.60;;;19.20;1.00;;;;;;5042640;28;20422;-72
2022/09/03 07:14:59;;;;;;;2.83;1.63;;;19.20;1.00;;;;;;5050622;28;20471;-72
2022/09/03 07:17:25;;;;;;;2.60;1.80;;;19.20;1.00;;;;;;5043207;28;20447;-72
2022/09/03 07:19:50;;;;;;;1.97;1.83;;;19.30;1.00;;;;;;5042853;28;20172;-72
2022/09/03 07:22:16;;;;;;;1.67;1.57;;;19.30;1.00;;;;;;5038309;28;20253;-72
2022/09/03 07:24:45;;;;;;;1.70;1.60;;;19.30;1.00;;;;;;5035343;28;20210;-72
2022/09/03 07:27:14;;;;;;;3.20;2.00;;;19.40;1.00;;;;;;5029918;28;20182;-72
2022/09/03 07:30:14;;;;;;;3.57;1.70;;;19.50;1.00;;;;;;5036666;28;20434;-81
2022/09/03 07:33:32;;;;;;;3.60;1.70;;;19.60;1.00;;;;;;5036502;28;20373;-81
2022/09/03 07:42:42;;;;;;;3.17;1.83;;;19.60;1.00;;;;;;5044451;28;20388;-83
2022/09/03 07:45:14;;;;;;;1.80;1.70;;;19.50;1.00;;;;;;5024387;28;20434;-83
2022/09/03 07:54:26;;;;;;;2.20;2.00;;;19.40;1.00;;;;;;5037244;28;20451;-83
2022/09/03 07:57:02;;;;;;;1.97;1.87;;;19.30;1.00;;;;;;5034771;28;20393;-83
2022/09/03 08:00:02;;;;;;;3.83;2.03;;;19.30;1.00;;;;;;5042113;28;20426;-84
2022/09/03 08:09:12;;;;;;;3.73;1.87;;;19.30;1.00;;;;;;5035244;28;20850;-84
2022/09/03 08:11:42;;;;;;;4.07;1.90;;;19.20;1.00;;;;;;5047482;28;20475;-84
2022/09/03 08:17:56;;;;;;;2.20;2.00;;;19.10;1.00;;;;;;5030726;28;20393;-77
2022/09/03 08:20:32;;;;;;;4.67;2.37;;;18.90;1.00;;;;;;5048780;28;20517;-78
2022/09/03 08:23:02;;;;;;;2.53;2.33;;;18.90;1.00;;;;;;5035156;28;20417;-78
2022/09/03 08:25:32;;;;;;;5.80;2.63;;;18.90;1.00;;;;;;5048652;28;20903;-75
2022/09/03 08:28:20;;;;;;;5.00;2.50;;;18.90;1.00;;;;;;5042634;28;20424;-77
2022/09/03 08:30:50;;;;;;;7.37;2.43;;;18.90;1.00;;;;;;5034900;28;20417;-75
2022/09/03 08:33:35;;;;;;;8.47;2.63;;;18.90;1.00;;;;;;5030339;28;20944;-75
2022/09/03 08:36:05;;;;;;;2.60;2.33;;;18.90;1.00;;;;;;5025011;28;20454;-70
2022/09/03 08:38:32;;;;;;;9.50;2.60;;;18.90;1.00;;;;;;5024122;28;20433;-69
2022/09/03 08:41:10;;;;;;;3.30;2.80;;;19.00;1.00;;;;;;5035152;28;20414;-69
2022/09/03 08:43:59;;;;;;;12.13;2.90;;;19.00;1.00;;;;;;5032421;28;20487;-69
2022/09/03 08:46:39;;;;;;;4.93;3.00;;;19.10;1.00;;;;;;4954209;29;20430;-70
2022/09/03 08:49:09;;;;;;;2.47;2.37;;;19.20;1.00;;;;;;4955640;28;20924;-70
2022/09/03 08:51:38;;;;;;;2.97;2.77;;;19.30;1.00;;;;;;4973440;28;20578;-70
2022/09/03 08:54:06;;;;;;;3.37;3.07;;;19.40;1.00;;;;;;4962287;28;20472;-69
2022/09/03 08:56:37;;;;;;;3.07;2.80;;;19.60;1.00;;;;;;4966531;28;20400;-69
2022/09/03 08:59:04;;;;;;;4.07;2.80;;;19.80;1.00;;;;;;4973391;28;20421;-69
2022/09/03 09:01:54;;;;;;;2.70;2.50;;;20.00;1.00;;;;;;4973586;28;20424;-73
2022/09/03 09:04:57;;;;;;;5.20;3.00;;;20.20;1.00;;;;;;4953436;28;20455;-72
2022/09/03 09:08:01;;;;;;;6.20;3.13;;;20.40;1.00;;;;;;4970031;28;20521;-80
2022/09/03 09:10:48;;;;;;;4.40;2.87;;;20.60;1.00;;;;;;4948913;28;20447;-80
2022/09/03 09:13:36;;;;;;;4.50;2.40;;;20.90;1.00;;;;;;4970413;28;20953;-83
2022/09/03 09:19:35;;;;;;;3.47;2.30;;;21.40;1.00;;;;;;4961489;28;20418;-84
2022/09/03 09:22:25;;;;;;;7.63;2.50;;;21.40;1.00;;;;;;4952786;28;20446;-83
2022/09/03 09:25:00;;;;;;;9.07;2.53;;;21.30;1.00;;;;;;5043720;28;20432;-84
2022/09/03 09:27:58;;;;;;;4.70;2.50;;;21.30;1.00;;;;;;5047741;28;20459;-83
2022/09/03 09:33:46;;;;;;;3.67;2.50;;;21.60;1.00;;;;;;5038540;28;20378;-84
2022/09/03 09:36:18;;;;;;;5.00;2.60;;;21.80;1.00;;;;;;5040681;28;20407;-83
2022/09/03 09:39:08;;;;;;;1.73;1.63;;;21.80;1.00;;;;;;5035460;28;20482;-79
2022/09/03 09:42:10;;;;;;;6.87;2.00;;;21.80;1.00;;;;;;5037679;28;20429;-79
2022/09/03 09:44:38;;;;;;;3.40;2.33;;;21.80;1.00;;;;;;5024873;28;20437;-78
2022/09/03 09:47:37;;;;;;;3.17;2.50;;;21.80;1.00;;;;;;5037094;28;20497;-73
2022/09/03 09:50:28;;;;;;;15.20;3.50;;;21.80;1.00;;;;;;5037264;28;20420;-73
2022/09/03 09:53:13;;;;;;;2266.67;900.97;;;21.80;1.00;;;;;;5029649;28;20428;-73
2022/09/03 09:55:49;;;;;;;1438.17;410.10;;;21.80;1.00;;;;;;5036163;28;20795;-73
2022/09/03 09:58:18;;;;;;;535.30;133.93;;;21.60;1.00;;;;;;5048885;28;20769;-73
2022/09/03 10:01:12;;;;;;;530.83;134.43;;;21.50;1.00;;;;;;5041449;28;20502;-73
2022/09/03 10:03:54;;;;;;;434.67;97.20;;;21.40;1.00;;;;;;5043876;28;20761;-79
2022/09/03 10:10:15;;;;;;;36.73;8.10;;;21.40;1.00;;;;;;5032181;28;20439;-79
2022/09/03 10:13:09;;;;;;;6.77;3.47;;;21.30;1.00;;;;;;5048467;28;20435;-78
2022/09/03 10:16:26;;;;;;;7.53;3.20;;;21.30;1.00;;;;;;5035425;28;20539;-78
2022/09/03 10:19:05;;;;;;;1440.73;451.87;;;21.30;1.00;;;;;;5041342;28;20433;-73
2022/09/03 10:21:53;;;;;;;131.77;28.23;;;21.30;1.00;;;;;;5030321;28;20387;-73
2022/09/03 10:24:57;;;;;;;45.50;12.23;;;21.60;1.00;;;;;;5044421;28;20414;-73
2022/09/03 10:27:24;;;;;;;212.90;38.80;;;21.80;1.00;;;;;;5037891;28;20416;-72
2022/09/03 10:29:59;;;;;;;20.17;6.03;;;22.10;1.00;;;;;;5040043;28;20753;-73
2022/09/03 10:32:52;;;;;;;20.37;6.20;;;22.40;1.00;;;;;;5046238;28;20426;-73
2022/09/03 10:35:40;;;;;;;26.60;6.63;;;22.80;1.00;;;;;;5043024;28;20454;-73
2022/09/03 10:38:25;;;;;;;5.87;2.77;;;23.20;1.00;;;;;;5039823;28;20510;-74
2022/09/03 10:41:12;;;;;;;14.03;3.83;;;23.70;1.00;;;;;;5036706;28;20417;-73
2022/09/03 10:43:57;;;;;;;2.30;2.10;;;24.10;1.00;;;;;;5041600;28;20382;-77
2022/09/03 10:46:26;;;;;;;2.87;2.60;;;24.10;1.00;;;;;;5039370;28;20415;-72
2022/09/03 10:49:30;;;;;;;5.07;2.50;;;24.20;1.00;;;;;;5040002;28;20406;-72
2022/09/03 10:52:07;;;;;;;2.33;2.20;;;24.40;1.00;;;;;;5038744;28;20420;-72
2022/09/03 10:55:13;;;;;;;6.30;2.70;;;24.80;1.00;;;;;;5052786;28;20457;-72
2022/09/03 10:58:02;;;;;;;206.33;38.27;;;25.00;1.00;;;;;;5037718;28;20431;-72
2022/09/03 11:00:30;;;;;;;8.70;4.20;;;25.40;1.00;;;;;;5035979;28;20440;-72
2022/09/03 11:03:11;;;;;;;148.73;31.30;;;25.70;1.00;;;;;;5045498;28;20478;-72
2022/09/03 11:05:41;;;;;;;9.37;4.33;;;25.60;1.00;;;;;;5041722;28;20430;-72
2022/09/03 11:08:23;;;;;;;5.63;3.20;;;25.70;1.00;;;;;;5039539;28;20897;-72
2022/09/03 11:10:56;;;;;;;18.40;6.07;;;25.90;1.00;;;;;;5042922;28;20428;-72
2022/09/03 11:13:28;;;;;;;11.83;3.90;;;25.90;1.00;;;;;;5059285;28;20413;-72
2022/09/03 11:16:06;;;;;;;7.33;3.27;;;25.90;1.00;;;;;;5039911;28;20457;-72
2022/09/03 11:18:42;;;;;;;7.23;2.87;;;26.00;1.00;;;;;;5039508;28;20414;-72
2022/09/03 11:21:18;;;;;;;8.80;3.10;;;26.10;1.00;;;;;;5039100;28;20419;-72
2022/09/03 11:23:46;;;;;;;230.97;40.70;;;26.20;1.00;;;;;;5051634;28;20425;-72
2022/09/03 11:26:17;;;;;;;10.90;4.13;;;26.30;1.00;;;;;;5059292;28;20415;-72
2022/09/03 11:28:55;;;;;;;6.97;2.73;;;26.20;1.00;;;;;;5034466;28;20425;-72
2022/09/03 11:31:42;;;;;;;3.73;3.13;;;26.40;1.00;;;;;;5051059;28;20424;-72
2022/09/03 11:34:14;;;;;;;14.77;8.90;;;26.80;1.00;;;;;;5044726;28;20821;-72
2022/09/03 11:36:51;;;;;;;7.60;4.30;;;26.90;1.00;;;;;;5049434;28;20420;-74
2022/09/03 11:39:33;;;;;;;5.17;2.90;;;27.30;1.00;;;;;;5035384;28;20782;-72
2022/09/03 11:42:07;;;;;;;13.40;8.03;;;27.20;1.00;;;;;;5040109;28;20449;-73
2022/09/03 11:44:41;;;;;;;4.00;2.80;;;27.10;1.00;;;;;;5055639;28;20873;-71
2022/09/03 11:47:15;;;;;;;9.23;5.03;;;27.20;1.00;;;;;;5037672;28;20451;-71
2022/09/03 11:49:49;;;;;;;4.90;3.57;;;27.10;1.00;;;;;;5040859;28;20907;-77
2022/09/03 11:52:31;;;;;;;168.37;23.13;;;26.90;1.00;;;;;;5044892;28;20423;-77
2022/09/03 11:55:32;;;;;;;6.20;3.03;;;26.60;1.00;;;;;;5042549;28;20450;-78
2022/09/03 11:58:17;;;;;;;2.97;2.67;;;26.40;1.00;;;;;;5037273;28;20418;-77
2022/09/03 12:00:44;;;;;;;5.47;2.90;;;26.20;1.00;;;;;;5054901;28;20408;-77
2022/09/03 12:03:16;;;;;;;3.30;3.00;;;25.90;1.00;;;;;;5052709;28;20405;-70
2022/09/03 12:06:27;;;;;;;3.00;2.80;;;25.80;1.00;;;;;;5031076;28;20557;-69
2022/09/03 12:08:52;;;;;;;8.47;3.67;;;25.80;1.00;;;;;;4974170;28;20436;-76
2022/09/03 12:11:36;;;;;;;2.67;2.47;;;25.70;1.00;;;;;;4984275;28;20853;-78
2022/09/03 12:14:50;;;;;;;2.60;2.40;;;25.60;1.00;;;;;;4976385;28;20274;-79
2022/09/03 12:17:48;;;;;;;4.30;2.50;;;25.40;1.00;;;;;;4955574;29;20392;-76
2022/09/03 12:20:27;;;;;;;7.37;2.20;;;25.50;1.00;;;;;;4978842;28;20472;-76
2022/09/03 12:22:54;;;;;;;4.30;2.80;;;25.60;1.00;;;;;;4966661;28;20498;-76
2022/09/03 12:25:20;;;;;;;2.57;2.40;;;25.60;1.00;;;;;;4983063;28;20428;-76
2022/09/03 12:28:02;;;;;;;2.63;2.47;;;25.60;1.00;;;;;;4980552;28;20429;-76
2022/09/03 12:30:38;;;;;;;5.50;2.93;;;25.80;1.00;;;;;;4978328;28;20662;-76
2022/09/03 12:33:16;;;;;;;2.47;2.27;;;25.90;1.00;;;;;;4969305;28;20426;-76
2022/09/03 12:39:19;;;;;;;3.67;2.20;;;25.90;1.00;;;;;;4967813;28;20523;-77
2022/09/03 12:42:05;;;;;;;2.90;2.70;;;26.00;1.00;;;;;;4978360;28;20411;-76
2022/09/03 12:44:41;;;;;;;3.20;2.03;;;25.90;1.00;;;;;;5010597;28;20461;-75
2022/09/03 12:47:37;;;;;;;3.07;1.93;;;25.90;1.00;;;;;;5037840;28;20462;-76
2022/09/03 12:50:18;;;;;;;2.30;2.20;;;26.00;1.00;;;;;;5023889;28;21153;-78
2022/09/03 12:53:02;;;;;;;2.53;2.33;;;26.40;1.00;;;;;;5038002;28;20420;-78
2022/09/03 12:55:58;;;;;;;1.80;1.70;;;26.70;1.00;;;;;;5043816;28;20984;-79
2022/09/03 12:58:37;;;;;;;3.30;1.73;;;27.20;1.00;;;;;;5034602;28;20406;-78
2022/09/03 13:04:34;;;;;;;4.37;1.63;;;27.10;1.00;;;;;;5023639;28;20479;-76
2022/09/03 13:07:37;;;;;;;1.80;1.70;;;27.10;1.00;;;;;;5042472;28;20421;-77
2022/09/03 13:10:24;;;;;;;3.17;1.80;;;27.00;1.00;;;;;;5039591;28;20428;-76
2022/09/03 13:12:49;;;;;;;1.70;1.60;;;27.00;1.00;;;;;;5035152;28;20417;-76
2022/09/03 13:15:33;;;;;;;3.40;1.90;;;27.10;1.00;;;;;;5040913;28;20539;-76
2022/09/03 13:18:05;;;;;;;2.00;1.90;;;27.20;1.00;;;;;;5045097;28;20227;-76
2022/09/03 13:20:55;;;;;;;2.13;1.63;;;27.00;1.00;;;;;;5037558;28;20421;-76
2022/09/03 13:23:49;;;;;;;2.13;1.90;;;26.90;1.00;;;;;;5034368;28;20442;-77
2022/09/03 13:26:56;;;;;;;1.97;1.80;;;26.60;1.00;;;;;;5040639;28;20442;-81
2022/09/03 13:29:56;;;;;;;2.40;2.20;;;26.20;1.00;;;;;;5029263;28;20429;-80
2022/09/03 13:32:56;;;;;;;4.20;2.10;;;25.90;1.00;;;;;;5033821;28;20414;-80
2022/09/03 13:38:56;;;;;;;2.33;2.13;;;25.70;1.00;;;;;;5040138;28;20788;-79
2022/09/03 13:41:35;;;;;;;2.20;2.00;;;25.80;1.00;;;;;;5046197;28;20499;-79
2022/09/03 13:44:26;;;;;;;2.97;2.43;;;25.90;1.00;;;;;;5033856;28;20422;-79
2022/09/03 13:47:26;;;;;;;2.10;2.00;;;26.00;1.00;;;;;;5032484;28;20419;-79
2022/09/03 13:50:32;;;;;;;2.50;1.80;;;26.10;1.00;;;;;;5035565;28;20417;-84
2022/09/03 13:53:18;;;;;;;1.90;1.80;;;26.20;1.00;;;;;;5045916;28;20417;-84
2022/09/03 13:56:15;;;;;;;1.50;1.40;;;26.50;1.00;;;;;;5032829;28;20845;-84
2022/09/03 13:59:26;;;;;;;1.43;1.33;;;26.60;1.00;;;;;;5040956;28;20827;-79
2022/09/03 14:02:29;;;;;;;3.70;1.40;;;26.70;1.00;;;;;;5034514;28;20423;-79
2022/09/03 14:05:11;;;;;;;2.00;1.90;;;27.00;1.00;;;;;;5039108;28;20435;-82
2022/09/03 14:11:44;;;;;;;1.83;1.70;;;27.40;1.00;;;;;;5023769;28;20414;-81
2022/09/03 14:14:56;;;;;;;1.93;1.83;;;27.70;1.00;;;;;;5032068;28;20503;-80
2022/09/03 14:17:44;;;;;;;4.30;1.50;;;27.60;1.00;;;;;;5033413;28;20433;-79
2022/09/03 14:20:40;;;;;;;2.20;1.50;;;27.60;1.00;;;;;;5033726;28;20545;-81
2022/09/03 14:23:53;;;;;;;1.30;1.30;;;27.50;1.00;;;;;;5031671;28;20512;-79
2022/09/03 14:26:35;;;;;;;1.40;1.30;;;27.30;1.00;;;;;;4963476;28;20475;-81
2022/09/03 14:33:03;;;;;;;1.40;1.40;;;27.30;1.00;;;;;;4972195;28;20422;-80
2022/09/03 14:36:02;;;;;;;6.77;1.53;;;27.10;1.00;;;;;;4972362;28;20467;-80
2022/09/03 14:42:22;;;;;;;5.20;2.67;;;26.80;1.00;;;;;;4965899;28;20820;-79
2022/09/03 14:48:37;;;;;;;5.23;2.53;;;26.90;1.00;;;;;;4989768;28;20751;-85
2022/09/03 14:51:34;;;;;;;13.63;6.03;;;27.00;1.00;;;;;;4991958;28;20409;-79
2022/09/03 14:57:56;;;;;;;9.23;3.27;;;27.20;1.00;;;;;;4969880;28;20422;-81
2022/09/03 15:04:08;;;;;;;4.37;1.43;;;27.60;1.00;;;;;;5034943;28;20397;-80
2022/09/03 15:07:08;;;;;;;1.50;1.40;;;28.30;1.00;;;;;;5037000;28;20426;-80
2022/09/03 15:10:20;;;;;;;1.70;1.40;;;28.80;1.00;;;;;;5036731;28;20573;-81
2022/09/03 15:13:26;;;;;;;1.37;1.27;;;28.60;1.00;;;;;;5039030;28;20426;-80
2022/09/03 15:16:44;;;;;;;2.63;1.50;;;28.50;1.00;;;;;;5055791;28;20459;-80
2022/09/03 15:19:38;;;;;;;1.27;1.27;;;28.70;1.00;;;;;;5031921;28;20458;-78
2022/09/03 15:22:13;;;;;;;1.40;1.30;;;30.10;1.00;;;;;;5046799;28;20429;-78
2022/09/03 15:24:47;;;;;;;4.30;1.50;;;30.50;1.00;;;;;;5047981;28;20896;-79
2022/09/03 15:27:44;;;;;;;2.37;1.20;;;30.60;1.00;;;;;;5056290;28;20390;-79
2022/09/03 15:30:56;;;;;;;3.73;1.47;;;31.90;1.00;;;;;;5050134;28;20449;-78
2022/09/03 15:33:42;;;;;;;1.30;1.30;;;33.40;1.00;;;;;;5037716;28;20908;-78
2022/09/03 15:36:52;;;;;;;1.30;1.20;;;34.30;1.00;;;;;;5049516;28;20472;-89
2022/09/03 15:39:41;;;;;;;1.07;1.07;;;33.90;1.00;;;;;;5052982;28;20407;-89
2022/09/03 15:49:24;;;;;;;1.00;1.00;;;34.50;1.00;;;;;;5055833;28;20976;-79
2022/09/03 15:52:16;;;;;;;1.63;1.40;;;34.90;1.00;;;;;;5016504;28;20393;-80
2022/09/03 15:55:08;;;;;;;5.33;1.60;;;34.00;1.00;;;;;;5029629;28;20458;-81
2022/09/03 16:01:03;;;;;;;1.10;1.10;;;31.70;1.00;;;;;;5045326;28;20409;-81
2022/09/03 16:03:45;;;;;;;1.57;1.47;;;30.80;1.00;;;;;;5044366;28;20406;-82
2022/09/03 16:10:11;;;;;;;1.67;1.57;;;29.20;1.00;;;;;;5046188;28;20920;-76
2022/09/03 16:12:55;;;;;;;2.83;1.70;;;28.30;1.00;;;;;;5030745;28;20441;-76
2022/09/03 16:15:42;;;;;;;1.43;1.33;;;27.70;1.00;;;;;;5035990;28;20446;-77
2022/09/03 16:24:54;;;;;;;2.00;1.80;;;27.10;1.00;;;;;;5037914;28;20478;-79
2022/09/03 16:31:07;;;;;;;1.70;1.60;;;27.20;1.00;;;;;;5035915;28;20404;-79
2022/09/03 16:34:11;;;;;;;2.10;1.90;;;27.40;1.00;;;;;;5049996;28;20412;-80
2022/09/03 16:37:02;;;;;;;4.33;1.87;;;27.30;1.00;;;;;;5035499;28;20420;-80
2022/09/03 16:43:27;;;;;;;2.03;1.70;;;26.90;1.00;;;;;;5039656;28;20921;-81
2022/09/03 16:49:26;;;;;;;1.80;1.70;;;26.10;1.00;;;;;;5030387;28;20395;-78
2022/09/03 16:52:01;;;;;;;2.57;2.13;;;25.80;1.00;;;;;;5039027;28;20408;-78
2022/09/03 16:58:02;;;;;;;2.80;2.23;;;25.40;1.00;;;;;;5036943;28;20446;-78
2022/09/03 17:01:20;;;;;;;2.50;2.30;;;25.10;1.00;;;;;;5027234;28;20427;-77
2022/09/03 17:07:09;;;;;;;3.00;2.43;;;24.80;1.00;;;;;;5015147;28;20929;-78
2022/09/03 17:13:38;;;;;;;2.33;2.17;;;24.50;1.00;;;;;;5045449;28;20981;-78
2022/09/03 17:20:08;;;;;;;1.30;1.03;;;23.80;1.00;;;;;;4999082;28;20438;-79
2022/09/03 17:23:08;;;;;;;2.73;0.87;;;23.30;1.00;;;;;;4998480;28;20963;-79
2022/09/03 17:29:03;;;;;;;1.10;0.80;;;23.00;1.00;;;;;;4992341;28;20814;-78
2022/09/03 17:42:10;;;;;;;0.80;0.80;;;22.10;1.00;;;;;;5000878;28;20389;-80